Time;durP1;ratioP1;P1;durP2;ratioP2;P2;SDS_P1;SDS_P2;PMS_P1;PMS_P2;Temp;Humidity;BMP_temperature;BMP_pressure;BME280_temperature;BME280_humidity;BME280_pressure;Samples;Min_cycle;Max_cycle;Signal;HPM_P1;HPM_P2
2023/04/21 00:02:14;;;;;;;2.85;1.80;;;;;;;;;;5050819;28;20029;-85
2023/04/21 00:04:41;;;;;;;3.55;2.42;;;;;;;;;;5050508;28;20029;-85
2023/04/21 00:07:07;;;;;;;4.18;2.17;;;;;;;;;;5052188;28;20025;-83
2023/04/21 00:09:32;;;;;;;3.58;2.35;;;;;;;;;;5052651;28;20033;-84
2023/04/21 00:11:58;;;;;;;4.18;2.78;;;;;;;;;;5051350;28;20047;-83
2023/04/21 00:14:23;;;;;;;4.97;2.50;;;;;;;;;;5050189;28;20025;-86
2023/04/21 00:16:51;;;;;;;4.93;2.40;;;;;;;;;;5051205;28;20024;-88
2023/04/21 00:19:18;;;;;;;4.05;2.10;;;;;;;;;;5051117;28;20047;-85
2023/04/21 00:21:44;;;;;;;2.08;1.75;;;;;;;;;;5051415;28;20033;-84
2023/04/21 00:24:09;;;;;;;3.03;2.20;;;;;;;;;;5049661;28;20552;-83
2023/04/21 00:26:35;;;;;;;2.90;1.85;;;;;;;;;;5051282;28;20029;-84
2023/04/21 00:29:00;;;;;;;4.32;2.15;;;;;;;;;;5048123;28;20024;-83
2023/04/21 00:31:26;;;;;;;5.32;3.40;;;;;;;;;;5050481;28;20542;-82
2023/04/21 00:33:52;;;;;;;2.67;1.67;;;;;;;;;;5049915;28;20147;-85
2023/04/21 00:36:18;;;;;;;4.50;2.53;;;;;;;;;;5047986;28;20445;-85
2023/04/21 00:38:43;;;;;;;4.35;2.47;;;;;;;;;;5049644;28;20064;-84
2023/04/21 00:41:09;;;;;;;3.78;2.30;;;;;;;;;;5051100;28;20025;-86
2023/04/21 00:43:34;;;;;;;2.42;1.73;;;;;;;;;;5050619;28;20033;-83
2023/04/21 00:46:00;;;;;;;3.70;2.20;;;;;;;;;;5051446;28;20470;-84
2023/04/21 00:48:25;;;;;;;2.13;1.92;;;;;;;;;;5051484;28;20025;-85
2023/04/21 00:50:51;;;;;;;3.30;2.65;;;;;;;;;;5053555;28;20064;-87
2023/04/21 00:53:16;;;;;;;4.72;2.72;;;;;;;;;;5056308;28;20021;-86
2023/04/21 00:55:42;;;;;;;3.70;2.17;;;;;;;;;;5055593;28;20056;-85
2023/04/21 00:58:07;;;;;;;2.95;1.88;;;;;;;;;;5057219;28;20570;-84
2023/04/21 01:00:36;;;;;;;2.20;1.73;;;;;;;;;;5056298;28;20028;-85
2023/04/21 01:03:03;;;;;;;3.85;2.15;;;;;;;;;;5056003;28;20036;-85
2023/04/21 01:05:30;;;;;;;3.72;1.95;;;;;;;;;;5054966;28;20028;-85
2023/04/21 01:07:55;;;;;;;3.00;1.80;;;;;;;;;;5055518;28;20524;-83
2023/04/21 01:10:21;;;;;;;2.92;1.90;;;;;;;;;;5055297;28;20111;-85
2023/04/21 01:12:47;;;;;;;3.65;2.38;;;;;;;;;;5055798;28;20025;-82
2023/04/21 01:15:14;;;;;;;2.70;1.77;;;;;;;;;;5054723;28;20033;-85
2023/04/21 01:17:40;;;;;;;2.05;1.77;;;;;;;;;;5054942;28;20500;-85
2023/04/21 01:20:12;;;;;;;4.05;2.95;;;;;;;;;;5054913;28;20036;-89
2023/04/21 01:22:38;;;;;;;3.65;2.17;;;;;;;;;;5056867;28;20413;-83
2023/04/21 01:25:04;;;;;;;5.85;3.35;;;;;;;;;;5057803;28;20487;-84
2023/04/21 01:27:30;;;;;;;4.25;2.75;;;;;;;;;;5055297;28;20036;-86
2023/04/21 01:29:56;;;;;;;3.25;2.13;;;;;;;;;;5053984;28;20056;-83
2023/04/21 01:32:27;;;;;;;3.85;2.72;;;;;;;;;;5055196;28;20052;-85
2023/04/21 01:34:54;;;;;;;2.42;1.65;;;;;;;;;;5053380;28;20022;-84
2023/04/21 01:37:23;;;;;;;3.58;2.22;;;;;;;;;;5068802;28;20036;-85
2023/04/21 01:39:53;;;;;;;3.35;2.47;;;;;;;;;;5053712;28;20012;-84
2023/04/21 01:42:23;;;;;;;5.43;1.90;;;;;;;;;;5089753;28;20369;-85
2023/04/21 01:44:49;;;;;;;3.00;2.13;;;;;;;;;;5055323;28;20024;-84
2023/04/21 01:47:16;;;;;;;3.47;2.25;;;;;;;;;;5054167;28;20033;-84
2023/04/21 01:49:42;;;;;;;3.50;1.98;;;;;;;;;;5054595;28;20100;-82
2023/04/21 01:52:07;;;;;;;5.50;2.45;;;;;;;;;;5054486;28;20032;-83
2023/04/21 01:54:33;;;;;;;3.30;2.17;;;;;;;;;;5053366;28;20033;-83
2023/04/21 01:56:59;;;;;;;3.75;2.47;;;;;;;;;;5055161;28;20036;-81
2023/04/21 01:59:25;;;;;;;4.15;2.13;;;;;;;;;;5055620;28;20031;-83
2023/04/21 02:01:50;;;;;;;3.25;1.65;;;;;;;;;;5054579;28;20099;-84
2023/04/21 02:04:15;;;;;;;3.45;1.50;;;;;;;;;;5054898;28;20035;-81
2023/04/21 02:06:44;;;;;;;3.67;1.65;;;;;;;;;;5055040;28;20047;-82
2023/04/21 02:09:10;;;;;;;4.07;3.50;;;;;;;;;;5052612;28;20036;-82
2023/04/21 02:11:36;;;;;;;8.90;2.90;;;;;;;;;;5053987;28;20037;-83
2023/04/21 02:14:01;;;;;;;2.90;2.10;;;;;;;;;;5054807;28;20052;-83
2023/04/21 02:16:27;;;;;;;17.80;3.22;;;;;;;;;;5054070;28;20024;-82
2023/04/21 02:18:54;;;;;;;4.10;2.45;;;;;;;;;;5053133;28;20086;-84
2023/04/21 02:21:20;;;;;;;5.65;2.00;;;;;;;;;;5087124;28;20099;-84
2023/04/21 02:23:46;;;;;;;5.40;2.85;;;;;;;;;;5053150;28;20020;-83
2023/04/21 02:26:11;;;;;;;3.67;2.53;;;;;;;;;;5052729;28;20036;-84
2023/04/21 02:28:37;;;;;;;8.95;2.30;;;;;;;;;;5051750;28;20020;-85
2023/04/21 02:31:02;;;;;;;1.60;1.50;;;;;;;;;;5054312;28;20048;-84
2023/04/21 02:33:28;;;;;;;4.55;3.00;;;;;;;;;;5056382;28;20033;-85
2023/04/21 02:35:54;;;;;;;1.75;1.17;;;;;;;;;;5055156;28;20029;-87
2023/04/21 02:38:19;;;;;;;2.55;2.17;;;;;;;;;;5054246;28;20024;-82
2023/04/21 02:40:49;;;;;;;4.55;3.72;;;;;;;;;;5054308;28;20152;-83
2023/04/21 02:43:14;;;;;;;2.67;1.98;;;;;;;;;;5053378;28;20059;-84
2023/04/21 02:45:40;;;;;;;6.63;3.33;;;;;;;;;;5052956;28;20056;-88
2023/04/21 02:48:05;;;;;;;4.30;2.75;;;;;;;;;;5052708;28;20028;-83
2023/04/21 02:50:31;;;;;;;4.72;3.55;;;;;;;;;;5054268;28;20736;-84
2023/04/21 02:52:56;;;;;;;7.18;2.38;;;;;;;;;;5052318;28;20460;-86
2023/04/21 02:55:22;;;;;;;3.33;2.28;;;;;;;;;;5053309;28;21450;-88
2023/04/21 02:57:48;;;;;;;10.35;3.05;;;;;;;;;;5051912;28;20021;-86
2023/04/21 03:00:14;;;;;;;5.60;3.08;;;;;;;;;;5052495;28;20029;-83
2023/04/21 03:02:40;;;;;;;3.40;2.20;;;;;;;;;;5052377;28;20036;-84
2023/04/21 03:05:05;;;;;;;3.95;2.63;;;;;;;;;;5052825;28;20047;-84
2023/04/21 03:07:31;;;;;;;2.55;1.88;;;;;;;;;;5052517;28;20036;-86
2023/04/21 03:09:57;;;;;;;8.10;2.60;;;;;;;;;;5052538;28;20028;-86
2023/04/21 03:12:22;;;;;;;4.93;2.70;;;;;;;;;;5052205;28;20499;-82
2023/04/21 03:14:48;;;;;;;3.28;2.13;;;;;;;;;;5052429;28;20044;-85
2023/04/21 03:17:13;;;;;;;4.53;2.80;;;;;;;;;;5051587;28;20114;-85
2023/04/21 03:19:39;;;;;;;3.10;2.10;;;;;;;;;;5051876;28;20480;-86
2023/04/21 03:22:05;;;;;;;2.05;1.70;;;;;;;;;;5052250;28;20029;-85
2023/04/21 03:24:30;;;;;;;6.28;2.28;;;;;;;;;;5052492;28;20070;-85
2023/04/21 03:26:56;;;;;;;5.75;2.85;;;;;;;;;;5050363;28;20033;-85
2023/04/21 03:29:22;;;;;;;4.40;2.92;;;;;;;;;;5053026;28;20528;-84
2023/04/21 03:31:47;;;;;;;3.03;2.35;;;;;;;;;;5051466;28;20370;-85
2023/04/21 03:34:13;;;;;;;4.22;2.67;;;;;;;;;;5051303;28;20052;-84
2023/04/21 03:36:38;;;;;;;3.13;0.85;;;;;;;;;;5052207;28;20021;-84
2023/04/21 03:39:04;;;;;;;2.90;2.00;;;;;;;;;;5054201;28;20036;-84
2023/04/21 03:41:30;;;;;;;4.68;2.55;;;;;;;;;;5054502;28;20465;-86
2023/04/21 03:43:55;;;;;;;3.20;2.05;;;;;;;;;;5051786;28;20032;-86
2023/04/21 03:46:21;;;;;;;7.65;4.63;;;;;;;;;;5050706;28;20488;-85
2023/04/21 03:48:47;;;;;;;6.30;4.03;;;;;;;;;;5048887;28;20021;-83
2023/04/21 03:51:13;;;;;;;4.05;3.38;;;;;;;;;;5050200;28;20040;-86
2023/04/21 03:53:40;;;;;;;4.78;2.67;;;;;;;;;;5052481;28;20020;-88
2023/04/21 03:56:05;;;;;;;4.63;2.85;;;;;;;;;;5053129;28;20028;-84
2023/04/21 03:58:31;;;;;;;4.75;2.80;;;;;;;;;;5052880;28;20515;-82
2023/04/21 04:00:56;;;;;;;2.63;1.42;;;;;;;;;;5051870;28;20020;-83
2023/04/21 04:03:22;;;;;;;4.25;2.53;;;;;;;;;;5049873;28;20051;-83
2023/04/21 04:05:47;;;;;;;5.25;3.08;;;;;;;;;;5051359;28;20029;-87
2023/04/21 04:08:13;;;;;;;8.75;3.90;;;;;;;;;;5051842;28;20052;-86
2023/04/21 04:10:38;;;;;;;5.32;3.03;;;;;;;;;;5051800;28;20028;-85
2023/04/21 04:13:03;;;;;;;3.08;1.92;;;;;;;;;;5050614;28;20044;-84
2023/04/21 04:15:29;;;;;;;4.05;2.55;;;;;;;;;;5053091;28;20021;-83
2023/04/21 04:17:55;;;;;;;5.22;3.40;;;;;;;;;;5050540;28;20033;-83
2023/04/21 04:20:20;;;;;;;2.30;1.67;;;;;;;;;;5049007;28;20040;-87
2023/04/21 04:22:46;;;;;;;4.70;1.40;;;;;;;;;;5049705;28;20033;-85
2023/04/21 04:25:13;;;;;;;6.28;3.33;;;;;;;;;;5053092;28;20359;-84
2023/04/21 04:27:39;;;;;;;5.47;2.78;;;;;;;;;;5055367;28;20025;-86
2023/04/21 04:30:05;;;;;;;4.60;2.90;;;;;;;;;;5055619;28;20107;-82
2023/04/21 04:32:32;;;;;;;10.63;4.38;;;;;;;;;;5056234;28;20047;-85
2023/04/21 04:34:58;;;;;;;3.10;2.20;;;;;;;;;;5054647;28;20017;-81
2023/04/21 04:37:24;;;;;;;4.97;3.13;;;;;;;;;;5052765;28;20143;-80
2023/04/21 04:39:53;;;;;;;5.55;3.83;;;;;;;;;;5054388;28;20429;-80
2023/04/21 04:42:19;;;;;;;3.08;2.20;;;;;;;;;;5051708;28;20075;-81
2023/04/21 04:44:45;;;;;;;7.78;3.50;;;;;;;;;;5052934;28;21048;-79
2023/04/21 04:47:11;;;;;;;5.30;3.67;;;;;;;;;;5052215;28;20033;-81
2023/04/21 04:49:37;;;;;;;7.32;3.03;;;;;;;;;;5054514;28;20083;-79
2023/04/21 04:52:02;;;;;;;3.25;2.20;;;;;;;;;;5053837;28;20369;-79
2023/04/21 04:54:28;;;;;;;4.03;2.67;;;;;;;;;;5052692;28;20036;-81
2023/04/21 04:56:54;;;;;;;3.63;1.80;;;;;;;;;;5053262;28;20112;-79
2023/04/21 04:59:20;;;;;;;4.03;2.65;;;;;;;;;;5054287;28;20074;-79
2023/04/21 05:01:45;;;;;;;3.50;2.80;;;;;;;;;;5052728;28;20029;-81
2023/04/21 05:04:15;;;;;;;3.88;2.80;;;;;;;;;;5053958;28;20021;-79
2023/04/21 05:06:40;;;;;;;3.22;2.25;;;;;;;;;;5053709;28;20036;-79
2023/04/21 05:09:06;;;;;;;5.40;2.60;;;;;;;;;;5052856;28;20381;-80
2023/04/21 05:11:31;;;;;;;4.15;2.13;;;;;;;;;;5053342;28;20033;-80
2023/04/21 05:13:57;;;;;;;3.35;2.22;;;;;;;;;;5053912;28;20025;-80
2023/04/21 05:16:22;;;;;;;6.00;3.42;;;;;;;;;;5050956;28;20048;-79
2023/04/21 05:18:52;;;;;;;6.78;3.50;;;;;;;;;;5053450;28;20489;-80
2023/04/21 05:21:27;;;;;;;6.88;3.53;;;;;;;;;;5053278;28;20036;-79
2023/04/21 05:23:55;;;;;;;6.95;4.35;;;;;;;;;;5053951;28;20041;-78
2023/04/21 05:26:20;;;;;;;5.18;2.72;;;;;;;;;;5053437;28;20029;-80
2023/04/21 05:28:45;;;;;;;3.83;2.75;;;;;;;;;;5051403;28;20024;-79
2023/04/21 05:31:11;;;;;;;5.80;3.30;;;;;;;;;;5051701;28;20037;-81
2023/04/21 05:33:36;;;;;;;4.13;3.22;;;;;;;;;;5051406;28;20025;-80
2023/04/21 05:36:06;;;;;;;3.60;1.88;;;;;;;;;;5051791;28;20400;-81
2023/04/21 05:38:32;;;;;;;4.53;2.58;;;;;;;;;;5063907;28;20018;-79
2023/04/21 05:40:57;;;;;;;8.32;2.30;;;;;;;;;;5050510;28;20375;-79
2023/04/21 05:43:23;;;;;;;6.47;4.25;;;;;;;;;;5052174;28;20021;-79
2023/04/21 05:45:48;;;;;;;4.47;2.20;;;;;;;;;;5052458;28;20861;-79
2023/04/21 05:48:14;;;;;;;2.80;2.03;;;;;;;;;;5052807;28;20067;-80
2023/04/21 05:50:39;;;;;;;4.82;3.30;;;;;;;;;;5051772;28;20032;-79
2023/04/21 05:53:05;;;;;;;5.18;2.45;;;;;;;;;;5051363;28;20111;-79
2023/04/21 05:55:32;;;;;;;5.97;3.38;;;;;;;;;;5052160;28;20471;-80
2023/04/21 05:57:58;;;;;;;5.25;2.78;;;;;;;;;;5053674;28;20051;-82
2023/04/21 06:00:23;;;;;;;3.80;1.98;;;;;;;;;;5053148;28;20040;-80
2023/04/21 06:02:49;;;;;;;3.95;2.78;;;;;;;;;;5052413;28;20067;-81
2023/04/21 06:05:14;;;;;;;10.90;3.45;;;;;;;;;;5053515;28;20041;-80
2023/04/21 06:07:40;;;;;;;4.38;2.88;;;;;;;;;;5052939;28;20078;-81
2023/04/21 06:10:06;;;;;;;7.55;4.10;;;;;;;;;;5050051;28;20388;-80
2023/04/21 06:12:31;;;;;;;4.75;2.85;;;;;;;;;;5051025;28;20067;-80
2023/04/21 06:14:57;;;;;;;1.98;1.48;;;;;;;;;;5052330;28;20110;-82
2023/04/21 06:17:23;;;;;;;12.20;4.88;;;;;;;;;;5051469;28;20060;-79
2023/04/21 06:19:54;;;;;;;6.95;3.92;;;;;;;;;;5052657;28;20136;-80
2023/04/21 06:22:24;;;;;;;8.88;4.78;;;;;;;;;;5051790;28;20114;-79
2023/04/21 06:24:49;;;;;;;7.13;3.75;;;;;;;;;;5052344;28;20021;-81
2023/04/21 06:27:15;;;;;;;4.03;2.90;;;;;;;;;;5049862;28;20040;-80
2023/04/21 06:29:41;;;;;;;4.68;2.65;;;;;;;;;;5049936;28;20058;-80
2023/04/21 06:32:07;;;;;;;6.28;4.07;;;;;;;;;;5052085;28;20116;-80
2023/04/21 06:34:33;;;;;;;9.05;2.60;;;;;;;;;;5051316;28;20074;-83
2023/04/21 06:37:01;;;;;;;6.28;3.53;;;;;;;;;;5050742;28;20032;-80
2023/04/21 06:39:27;;;;;;;3.65;2.75;;;;;;;;;;5052180;28;20112;-79
2023/04/21 06:41:53;;;;;;;4.97;2.72;;;;;;;;;;5051623;28;20037;-80
2023/04/21 06:44:19;;;;;;;4.35;3.00;;;;;;;;;;5049841;28;20542;-80
2023/04/21 06:46:46;;;;;;;6.10;3.97;;;;;;;;;;5050570;28;20033;-81
2023/04/21 06:49:11;;;;;;;5.32;2.75;;;;;;;;;;5049961;28;20021;-80
2023/04/21 06:51:37;;;;;;;3.95;2.85;;;;;;;;;;5050942;28;20044;-82
2023/04/21 06:54:03;;;;;;;4.70;2.95;;;;;;;;;;5048303;28;20017;-80
2023/04/21 06:56:29;;;;;;;5.38;2.90;;;;;;;;;;5051159;28;20113;-80
2023/04/21 06:58:55;;;;;;;8.85;3.50;;;;;;;;;;5051193;28;20031;-81
2023/04/21 07:01:20;;;;;;;6.45;3.60;;;;;;;;;;5052464;28;20024;-82
2023/04/21 07:03:46;;;;;;;4.85;2.92;;;;;;;;;;5051912;28;20041;-80
2023/04/21 07:06:11;;;;;;;3.95;2.70;;;;;;;;;;5052163;28;20452;-79
2023/04/21 07:08:38;;;;;;;4.13;2.67;;;;;;;;;;5047572;28;20025;-80
2023/04/21 07:11:03;;;;;;;13.32;2.92;;;;;;;;;;5050903;28;20040;-81
2023/04/21 07:13:29;;;;;;;3.78;2.50;;;;;;;;;;5052426;28;20028;-82
2023/04/21 07:15:57;;;;;;;7.43;2.95;;;;;;;;;;5052092;28;20029;-82
2023/04/21 07:18:22;;;;;;;6.00;2.85;;;;;;;;;;5051569;28;20110;-81
2023/04/21 07:20:48;;;;;;;5.95;3.28;;;;;;;;;;5051134;28;20052;-78
2023/04/21 07:23:14;;;;;;;4.85;2.60;;;;;;;;;;5051937;28;20036;-80
2023/04/21 07:25:39;;;;;;;6.60;3.63;;;;;;;;;;5047374;28;20393;-81
2023/04/21 07:28:05;;;;;;;5.80;2.05;;;;;;;;;;5050139;28;20023;-80
2023/04/21 07:30:30;;;;;;;5.25;3.40;;;;;;;;;;5051389;28;20086;-81
2023/04/21 07:32:56;;;;;;;3.72;2.85;;;;;;;;;;5052434;28;20033;-81
2023/04/21 07:35:23;;;;;;;4.07;2.60;;;;;;;;;;5051932;28;20091;-80
2023/04/21 07:37:48;;;;;;;5.57;3.60;;;;;;;;;;5051362;28;20029;-82
2023/04/21 07:40:13;;;;;;;5.75;2.90;;;;;;;;;;5047375;28;20032;-81
2023/04/21 07:42:39;;;;;;;3.38;1.90;;;;;;;;;;5083548;28;20036;-82
2023/04/21 07:45:05;;;;;;;4.15;2.67;;;;;;;;;;5049916;28;20021;-81
2023/04/21 07:47:30;;;;;;;3.35;1.88;;;;;;;;;;5051765;28;20366;-80
2023/04/21 07:49:56;;;;;;;6.25;3.28;;;;;;;;;;5049122;28;20447;-79
2023/04/21 07:52:22;;;;;;;4.68;2.70;;;;;;;;;;5050112;28;20496;-78
2023/04/21 07:54:47;;;;;;;4.15;3.30;;;;;;;;;;5050862;28;20032;-79
2023/04/21 07:57:12;;;;;;;8.25;2.78;;;;;;;;;;5051771;28;20108;-79
2023/04/21 07:59:38;;;;;;;5.28;2.35;;;;;;;;;;5050810;28;20105;-79
2023/04/21 08:02:03;;;;;;;3.47;2.63;;;;;;;;;;5048188;28;20028;-83
2023/04/21 08:04:29;;;;;;;4.50;2.65;;;;;;;;;;5049393;28;20029;-79
2023/04/21 08:06:54;;;;;;;6.32;3.92;;;;;;;;;;5048878;28;20033;-80
2023/04/21 08:09:20;;;;;;;5.25;1.85;;;;;;;;;;5050234;28;20028;-79
2023/04/21 08:11:46;;;;;;;3.90;2.55;;;;;;;;;;5051004;28;20033;-80
2023/04/21 08:14:12;;;;;;;4.88;2.35;;;;;;;;;;5049170;28;20465;-79
2023/04/21 08:16:39;;;;;;;3.65;2.58;;;;;;;;;;5048662;28;20524;-80
2023/04/21 08:19:06;;;;;;;5.45;2.53;;;;;;;;;;5048542;28;20032;-80
2023/04/21 08:21:33;;;;;;;5.88;3.08;;;;;;;;;;5050634;28;20052;-78
2023/04/21 08:23:58;;;;;;;4.03;2.80;;;;;;;;;;5050484;28;20021;-78
2023/04/21 08:26:24;;;;;;;4.28;2.58;;;;;;;;;;5048741;28;20098;-79
2023/04/21 08:28:51;;;;;;;3.40;2.30;;;;;;;;;;5050061;28;20117;-79
2023/04/21 08:31:17;;;;;;;4.10;2.50;;;;;;;;;;5051060;28;20036;-80
2023/04/21 08:33:43;;;;;;;5.10;2.88;;;;;;;;;;5048163;28;20025;-80
2023/04/21 08:36:09;;;;;;;2.78;1.95;;;;;;;;;;5048148;28;21144;-81
2023/04/21 08:38:34;;;;;;;6.60;3.58;;;;;;;;;;5050023;28;20017;-79
2023/04/21 08:41:01;;;;;;;3.10;2.25;;;;;;;;;;5052493;28;20036;-79
2023/04/21 08:43:28;;;;;;;4.20;3.15;;;;;;;;;;5050220;28;20464;-80
2023/04/21 08:45:54;;;;;;;3.60;2.78;;;;;;;;;;5050997;28;20071;-81
2023/04/21 08:48:21;;;;;;;3.67;2.42;;;;;;;;;;5049799;28;20446;-81
2023/04/21 08:50:49;;;;;;;4.85;2.65;;;;;;;;;;5049152;28;20037;-82
2023/04/21 08:53:15;;;;;;;2.60;1.88;;;;;;;;;;5052804;28;20112;-82
2023/04/21 08:55:41;;;;;;;4.28;2.42;;;;;;;;;;5049832;28;20036;-84
2023/04/21 08:58:10;;;;;;;4.72;2.83;;;;;;;;;;5050622;28;20036;-81
2023/04/21 09:00:36;;;;;;;4.80;2.92;;;;;;;;;;5051485;28;20108;-80
2023/04/21 09:03:03;;;;;;;4.70;3.05;;;;;;;;;;5049376;28;20389;-79
2023/04/21 09:05:31;;;;;;;3.83;2.55;;;;;;;;;;5050320;28;20110;-80
2023/04/21 09:08:10;;;;;;;5.00;2.47;;;;;;;;;;5050519;28;20167;-79
2023/04/21 09:10:48;;;;;;;3.75;2.60;;;;;;;;;;5049006;28;20140;-81
2023/04/21 09:13:14;;;;;;;6.00;3.22;;;;;;;;;;5052870;28;20033;-80
2023/04/21 09:15:53;;;;;;;3.95;3.35;;;;;;;;;;5051027;28;20438;-79
2023/04/21 09:18:26;;;;;;;7.15;3.05;;;;;;;;;;5054160;28;20071;-78
2023/04/21 09:21:05;;;;;;;3.33;2.22;;;;;;;;;;5053376;28;20036;-79
2023/04/21 09:23:30;;;;;;;3.07;2.23;;;;;;;;;;5052502;28;20037;-82
2023/04/21 09:25:55;;;;;;;2.15;1.30;;;;;;;;;;5052083;28;20277;-81
2023/04/21 09:28:21;;;;;;;2.55;2.22;;;;;;;;;;5053865;28;20025;-81
2023/04/21 09:30:53;;;;;;;5.57;2.40;;;;;;;;;;5053958;28;20032;-79
2023/04/21 09:33:19;;;;;;;3.38;2.38;;;;;;;;;;5051667;28;20035;-79
2023/04/21 09:35:44;;;;;;;3.17;2.03;;;;;;;;;;5052098;28;20033;-79
2023/04/21 09:38:11;;;;;;;4.43;2.05;;;;;;;;;;5052263;28;20108;-79
2023/04/21 09:40:37;;;;;;;3.80;2.10;;;;;;;;;;5053895;28;20044;-81
2023/04/21 09:43:03;;;;;;;3.70;1.98;;;;;;;;;;5051184;28;20661;-80
2023/04/21 09:45:29;;;;;;;5.07;2.50;;;;;;;;;;5052659;28;20037;-80
2023/04/21 09:47:59;;;;;;;3.05;1.85;;;;;;;;;;5052569;28;20481;-80
2023/04/21 09:50:25;;;;;;;3.13;2.28;;;;;;;;;;5050739;28;20025;-81
2023/04/21 09:52:52;;;;;;;2.90;2.17;;;;;;;;;;5052927;28;20031;-81
2023/04/21 09:55:21;;;;;;;3.35;2.33;;;;;;;;;;5051401;28;20025;-81
2023/04/21 09:57:50;;;;;;;5.20;2.47;;;;;;;;;;5051884;28;20396;-80
2023/04/21 10:00:17;;;;;;;5.28;2.50;;;;;;;;;;5052960;28;20028;-79
2023/04/21 10:02:53;;;;;;;3.42;2.28;;;;;;;;;;5052166;28;20037;-80
2023/04/21 10:05:18;;;;;;;3.30;2.35;;;;;;;;;;5053315;28;20074;-79
2023/04/21 10:07:45;;;;;;;3.25;2.13;;;;;;;;;;5050452;28;20034;-79
2023/04/21 10:10:26;;;;;;;2.83;2.13;;;;;;;;;;5051449;28;20028;-79
2023/04/21 10:12:52;;;;;;;5.78;3.35;;;;;;;;;;5051865;28;20028;-79
2023/04/21 10:15:32;;;;;;;3.38;2.25;;;;;;;;;;5053178;28;20021;-79
2023/04/21 10:18:16;;;;;;;3.40;1.67;;;;;;;;;;5051760;28;20095;-81
2023/04/21 10:20:55;;;;;;;3.28;2.30;;;;;;;;;;5053032;28;20028;-80
2023/04/21 10:23:31;;;;;;;2.58;1.55;;;;;;;;;;5051896;28;20083;-80
2023/04/21 10:26:07;;;;;;;2.45;1.60;;;;;;;;;;5051048;28;20492;-80
2023/04/21 10:28:46;;;;;;;2.72;2.00;;;;;;;;;;5051021;28;20523;-80
2023/04/21 10:31:29;;;;;;;2.78;2.17;;;;;;;;;;5053021;28;20104;-80
2023/04/21 10:34:07;;;;;;;2.05;1.75;;;;;;;;;;5052267;28;20064;-80
2023/04/21 10:36:34;;;;;;;3.72;1.98;;;;;;;;;;5051347;28;20369;-80
2023/04/21 10:39:04;;;;;;;3.63;2.00;;;;;;;;;;5052551;28;20052;-80
2023/04/21 10:41:32;;;;;;;2.08;1.52;;;;;;;;;;5052091;28;20494;-80
2023/04/21 10:43:58;;;;;;;3.30;1.83;;;;;;;;;;5050878;28;20055;-80
2023/04/21 10:46:34;;;;;;;5.05;2.42;;;;;;;;;;5052368;28;20063;-79
2023/04/21 10:49:24;;;;;;;3.45;2.20;;;;;;;;;;5050579;28;20025;-79
2023/04/21 10:54:35;;;;;;;2.53;1.83;;;;;;;;;;5051623;28;19912;-80
2023/04/21 10:57:01;;;;;;;4.40;2.47;;;;;;;;;;5051886;28;20017;-79
2023/04/21 10:59:27;;;;;;;3.00;2.13;;;;;;;;;;5050765;28;20422;-79
2023/04/21 11:01:53;;;;;;;2.92;2.17;;;;;;;;;;5047999;28;20052;-81
2023/04/21 11:04:20;;;;;;;4.38;2.35;;;;;;;;;;5052149;28;20034;-80
2023/04/21 11:07:08;;;;;;;2.05;1.58;;;;;;;;;;5051134;28;20021;-81
2023/04/21 11:09:35;;;;;;;1.48;1.33;;;;;;;;;;5051673;28;20033;-80
2023/04/21 11:12:06;;;;;;;2.90;1.92;;;;;;;;;;5052084;28;20092;-80
2023/04/21 11:14:34;;;;;;;3.60;2.50;;;;;;;;;;5050805;28;20040;-81
2023/04/21 11:17:00;;;;;;;8.00;2.42;;;;;;;;;;5050711;28;20472;-80
2023/04/21 11:19:25;;;;;;;3.58;2.08;;;;;;;;;;5049776;28;20044;-80
2023/04/21 11:21:54;;;;;;;3.20;2.08;;;;;;;;;;5051653;28;20551;-79
2023/04/21 11:24:20;;;;;;;2.83;1.88;;;;;;;;;;5050315;28;20036;-80
2023/04/21 11:26:46;;;;;;;2.88;1.60;;;;;;;;;;5049893;28;20079;-79
2023/04/21 11:29:11;;;;;;;5.65;2.38;;;;;;;;;;5048914;28;20103;-81
2023/04/21 11:31:39;;;;;;;6.03;2.13;;;;;;;;;;5051508;28;20025;-79
2023/04/21 11:34:06;;;;;;;2.28;1.60;;;;;;;;;;5048924;28;20114;-79
2023/04/21 11:36:36;;;;;;;3.30;2.10;;;;;;;;;;5049694;28;20626;-78
2023/04/21 11:39:10;;;;;;;2.70;1.48;;;;;;;;;;5050997;28;20021;-81
2023/04/21 11:41:40;;;;;;;3.55;1.88;;;;;;;;;;5049440;28;20488;-80
2023/04/21 11:44:07;;;;;;;2.80;1.95;;;;;;;;;;5049461;28;20691;-78
2023/04/21 11:46:32;;;;;;;3.08;1.95;;;;;;;;;;5050725;28;20107;-80
2023/04/21 11:49:03;;;;;;;2.00;1.10;;;;;;;;;;5051133;28;20406;-80
2023/04/21 11:51:33;;;;;;;3.30;2.25;;;;;;;;;;5049067;28;20112;-80
2023/04/21 11:53:59;;;;;;;6.40;1.73;;;;;;;;;;5051085;28;20025;-79
2023/04/21 11:56:25;;;;;;;1.63;1.52;;;;;;;;;;5050428;28;20472;-79
2023/04/21 11:58:51;;;;;;;5.53;2.40;;;;;;;;;;5050155;28;20017;-79
2023/04/21 12:01:18;;;;;;;3.13;1.80;;;;;;;;;;5047231;28;20052;-79
2023/04/21 12:03:54;;;;;;;2.92;1.85;;;;;;;;;;5049898;28;20108;-79
2023/04/21 12:06:25;;;;;;;3.15;2.05;;;;;;;;;;5048531;28;20025;-79
2023/04/21 12:09:01;;;;;;;5.75;1.85;;;;;;;;;;5051272;28;20112;-78
2023/04/21 12:11:28;;;;;;;1.38;0.90;;;;;;;;;;5047959;28;20085;-80
2023/04/21 12:13:56;;;;;;;3.03;1.17;;;;;;;;;;5049409;28;20033;-79
2023/04/21 12:16:26;;;;;;;2.40;1.60;;;;;;;;;;5051026;28;20091;-81
2023/04/21 12:18:56;;;;;;;2.20;1.60;;;;;;;;;;5048579;28;20052;-79
2023/04/21 12:21:28;;;;;;;2.22;1.42;;;;;;;;;;5049700;28;20404;-79
2023/04/21 12:23:53;;;;;;;2.80;1.77;;;;;;;;;;5049800;28;20436;-79
2023/04/21 12:26:21;;;;;;;3.28;2.13;;;;;;;;;;5048651;28;20037;-80
2023/04/21 12:28:46;;;;;;;3.00;1.60;;;;;;;;;;5047609;28;20867;-79
2023/04/21 12:31:12;;;;;;;2.90;1.92;;;;;;;;;;5047232;28;20049;-79
2023/04/21 12:33:38;;;;;;;3.85;2.35;;;;;;;;;;5050404;28;20037;-79
2023/04/21 12:36:04;;;;;;;2.22;1.50;;;;;;;;;;5045153;28;20082;-79
2023/04/21 12:38:29;;;;;;;2.78;2.05;;;;;;;;;;5050311;28;20017;-80
2023/04/21 12:40:55;;;;;;;3.60;1.92;;;;;;;;;;5049623;28;20465;-81
2023/04/21 12:43:20;;;;;;;10.52;1.75;;;;;;;;;;5051235;28;20032;-82
2023/04/21 12:45:46;;;;;;;2.38;2.17;;;;;;;;;;5053195;28;20033;-80
2023/04/21 12:48:12;;;;;;;2.50;2.08;;;;;;;;;;5051191;28;20033;-81
2023/04/21 12:50:37;;;;;;;4.82;2.38;;;;;;;;;;5054168;28;20029;-80
2023/04/21 12:53:03;;;;;;;5.28;2.35;;;;;;;;;;5050756;28;20075;-80
2023/04/21 12:55:28;;;;;;;3.75;2.20;;;;;;;;;;5052586;28;20033;-80
2023/04/21 12:57:54;;;;;;;2.05;1.67;;;;;;;;;;5054507;28;20062;-81
2023/04/21 13:00:20;;;;;;;4.30;1.98;;;;;;;;;;5053916;28;20020;-79
2023/04/21 13:02:45;;;;;;;2.80;1.58;;;;;;;;;;5053165;28;20099;-80
2023/04/21 13:05:11;;;;;;;2.67;1.90;;;;;;;;;;5053359;28;20071;-79
2023/04/21 13:07:37;;;;;;;3.00;1.80;;;;;;;;;;5053523;28;20037;-80
2023/04/21 13:10:05;;;;;;;3.53;2.17;;;;;;;;;;5052166;28;20876;-79
2023/04/21 13:12:33;;;;;;;2.78;1.80;;;;;;;;;;5052470;28;20061;-80
2023/04/21 13:14:59;;;;;;;2.72;2.03;;;;;;;;;;5054322;28;20366;-82
2023/04/21 13:17:24;;;;;;;3.45;2.13;;;;;;;;;;5050400;28;20056;-83
2023/04/21 13:19:50;;;;;;;2.47;2.13;;;;;;;;;;5052622;28;20037;-82
2023/04/21 13:22:15;;;;;;;2.97;2.00;;;;;;;;;;5055503;28;20078;-83
2023/04/21 13:24:41;;;;;;;3.42;2.03;;;;;;;;;;5053297;28;20033;-81
2023/04/21 13:27:06;;;;;;;4.32;2.28;;;;;;;;;;5053852;28;20100;-80
2023/04/21 13:29:33;;;;;;;2.30;1.55;;;;;;;;;;5054074;28;20350;-80
2023/04/21 13:32:00;;;;;;;2.42;1.75;;;;;;;;;;5053916;28;20116;-80
2023/04/21 13:34:25;;;;;;;2.63;1.92;;;;;;;;;;5053724;28;20124;-79
2023/04/21 13:36:51;;;;;;;3.60;1.92;;;;;;;;;;5051006;28;20159;-81
2023/04/21 13:39:16;;;;;;;3.17;1.98;;;;;;;;;;5054077;28;20024;-83
2023/04/21 13:41:42;;;;;;;2.75;1.70;;;;;;;;;;5052326;28;20036;-81
2023/04/21 13:44:07;;;;;;;3.00;1.90;;;;;;;;;;5052379;28;20028;-79
2023/04/21 13:46:32;;;;;;;6.00;2.13;;;;;;;;;;5052061;28;20029;-80
2023/04/21 13:48:58;;;;;;;2.22;1.58;;;;;;;;;;5053309;28;20477;-78
2023/04/21 13:51:24;;;;;;;2.72;1.75;;;;;;;;;;5053003;28;20086;-81
2023/04/21 13:53:49;;;;;;;3.78;2.22;;;;;;;;;;5053081;28;20083;-81
2023/04/21 13:56:15;;;;;;;4.28;1.85;;;;;;;;;;5052524;28;20033;-79
2023/04/21 13:58:41;;;;;;;5.65;2.00;;;;;;;;;;5053151;28;20025;-81
2023/04/21 14:01:07;;;;;;;3.80;1.88;;;;;;;;;;5051286;28;20086;-81
2023/04/21 14:03:33;;;;;;;5.30;2.22;;;;;;;;;;5054733;28;20464;-81
2023/04/21 14:05:58;;;;;;;3.47;1.90;;;;;;;;;;5055075;28;20029;-80
2023/04/21 14:08:24;;;;;;;6.53;2.38;;;;;;;;;;5058047;28;20491;-82
2023/04/21 14:10:49;;;;;;;2.20;1.73;;;;;;;;;;5056952;28;20177;-80
2023/04/21 14:13:15;;;;;;;4.15;2.47;;;;;;;;;;5052318;28;20025;-84
2023/04/21 14:15:40;;;;;;;1.80;1.50;;;;;;;;;;5055034;28;20033;-82
2023/04/21 14:18:06;;;;;;;3.08;1.67;;;;;;;;;;5052076;28;20044;-83
2023/04/21 14:20:32;;;;;;;2.03;1.70;;;;;;;;;;5054437;28;20401;-84
2023/04/21 14:22:57;;;;;;;8.70;2.10;;;;;;;;;;5049674;28;20084;-84
2023/04/21 14:25:22;;;;;;;3.33;1.73;;;;;;;;;;5049755;28;20104;-81
2023/04/21 14:27:48;;;;;;;3.90;1.95;;;;;;;;;;5052205;28;20021;-80
2023/04/21 14:30:13;;;;;;;3.35;2.42;;;;;;;;;;5051956;28;20024;-81
2023/04/21 14:32:44;;;;;;;6.30;2.40;;;;;;;;;;5048570;28;20025;-80
2023/04/21 14:35:11;;;;;;;2.70;1.60;;;;;;;;;;5051014;28;20028;-81
2023/04/21 14:37:36;;;;;;;4.60;1.92;;;;;;;;;;5050980;28;20055;-80
2023/04/21 14:40:02;;;;;;;3.85;2.42;;;;;;;;;;5052576;28;20434;-80
2023/04/21 14:42:28;;;;;;;4.03;2.25;;;;;;;;;;5052120;28;20465;-79
2023/04/21 14:44:54;;;;;;;3.10;2.08;;;;;;;;;;5053267;28;20036;-84